Time;durP1;ratioP1;P1;durP2;ratioP2;P2;SDS_P1;SDS_P2;PMS_P1;PMS_P2;Temp;Humidity;BMP_temperature;BMP_pressure;BME280_temperature;BME280_humidity;BME280_pressure;Samples;Min_cycle;Max_cycle;Signal;HPM_P1;HPM_P2
2023/09/11 00:01:09;;;;;;;;;;;;;;;20.04;100.00;101428.69;5054773;28;20382;-83
2023/09/11 00:03:56;;;;;;;;;;;;;;;20.02;100.00;101431.50;5054634;28;21887;-82
2023/09/11 00:06:41;;;;;;;;;;;;;;;20.02;100.00;101433.31;5055121;28;19932;-83
2023/09/11 00:09:27;;;;;;;;;;;;;;;20.00;100.00;101427.22;5037958;28;19928;-80
2023/09/11 00:12:13;;;;;;;;;;;;;;;20.00;100.00;101421.84;5040536;28;19974;-81
2023/09/11 00:14:58;;;;;;;;;;;;;;;19.98;100.00;101418.41;5054248;28;19928;-82
2023/09/11 00:17:44;;;;;;;;;;;;;;;19.96;100.00;101410.47;5052479;28;19927;-81
2023/09/11 00:20:30;;;;;;;;;;;;;;;19.94;100.00;101407.03;5058518;28;20066;-82
2023/09/11 00:23:15;;;;;;;;;;;;;;;19.92;100.00;101401.75;5058260;28;19940;-83
2023/09/11 00:26:01;;;;;;;;;;;;;;;19.90;100.00;101406.41;5056647;28;20076;-82
2023/09/11 00:28:47;;;;;;;;;;;;;;;19.88;100.00;101400.25;5040825;28;20430;-84
2023/09/11 00:31:33;;;;;;;;;;;;;;;19.87;100.00;101401.25;5059103;28;20644;-83
2023/09/11 00:34:18;;;;;;;;;;;;;;;19.86;100.00;101399.53;5061208;28;19936;-82
2023/09/11 00:37:04;;;;;;;;;;;;;;;19.85;100.00;101389.78;5041857;28;20471;-83
2023/09/11 00:39:50;;;;;;;;;;;;;;;19.84;100.00;101387.19;5057848;28;20398;-83
2023/09/11 00:42:35;;;;;;;;;;;;;;;19.81;100.00;101389.16;5059049;28;19936;-82
2023/09/11 00:45:21;;;;;;;;;;;;;;;19.80;100.00;101389.25;5043200;28;19955;-83
2023/09/11 00:48:07;;;;;;;;;;;;;;;19.77;100.00;101384.97;5045167;28;19935;-83
2023/09/11 00:50:54;;;;;;;;;;;;;;;19.74;100.00;101373.59;5045540;28;19963;-83
2023/09/11 00:53:39;;;;;;;;;;;;;;;19.71;100.00;101374.69;5042544;28;20021;-82
2023/09/11 00:56:25;;;;;;;;;;;;;;;19.71;100.00;101368.47;5058683;28;20293;-82
2023/09/11 00:59:10;;;;;;;;;;;;;;;19.70;100.00;101372.13;5058461;28;19933;-83
2023/09/11 01:01:56;;;;;;;;;;;;;;;19.66;100.00;101366.13;5028965;28;19924;-83
2023/09/11 01:04:42;;;;;;;;;;;;;;;19.66;100.00;101368.81;5031560;28;19924;-83
2023/09/11 01:07:28;;;;;;;;;;;;;;;19.64;100.00;101360.88;5044514;28;19929;-82
2023/09/11 01:10:13;;;;;;;;;;;;;;;19.64;100.00;101366.25;5059777;28;19974;-83
2023/09/11 01:12:59;;;;;;;;;;;;;;;19.64;100.00;101368.94;5042907;28;20440;-80
2023/09/11 01:15:48;;;;;;;;;;;;;;;19.63;100.00;101361.88;5056459;28;20306;-82
2023/09/11 01:18:34;;;;;;;;;;;;;;;19.62;100.00;101368.19;5054288;28;20089;-83
2023/09/11 01:21:20;;;;;;;;;;;;;;;19.60;100.00;101359.41;5058936;28;19924;-82
2023/09/11 01:24:27;;;;;;;;;;;;;;;19.60;100.00;101356.72;5039527;28;19940;-83
2023/09/11 01:27:31;;;;;;;;;;;;;;;19.59;100.00;101355.00;5042288;28;19938;-82
2023/09/11 01:30:17;;;;;;;;;;;;;;;19.57;100.00;101356.97;5055193;28;19928;-84
2023/09/11 01:33:02;;;;;;;;;;;;;;;19.56;100.00;101354.38;5043758;28;19948;-82
2023/09/11 01:35:50;;;;;;;;;;;;;;;19.54;100.00;101358.03;5042948;28;19931;-83
2023/09/11 01:38:36;;;;;;;;;;;;;;;19.54;100.00;101351.81;5057601;28;19936;-83
2023/09/11 01:41:26;;;;;;;;;;;;;;;19.53;100.00;101352.78;5041167;28;19924;-81
2023/09/11 01:44:17;;;;;;;;;;;;;;;19.52;100.00;101345.69;5057995;28;19998;-83
2023/09/11 01:47:02;;;;;;;;;;;;;;;19.52;100.00;101340.34;5059812;28;20041;-84
2023/09/11 01:49:48;;;;;;;;;;;;;;;19.51;100.00;101338.63;5044001;28;19924;-83
2023/09/11 01:52:34;;;;;;;;;;;;;;;19.50;100.00;101350.34;5029977;28;20301;-83
2023/09/11 01:55:20;;;;;;;;;;;;;;;19.49;100.00;101348.59;5044747;28;19932;-83
2023/09/11 01:58:05;;;;;;;;;;;;;;;19.47;100.00;101342.50;5057803;28;19939;-82
2023/09/11 02:00:51;;;;;;;;;;;;;;;19.47;100.00;101334.44;5045126;28;19924;-83
2023/09/11 02:03:40;;;;;;;;;;;;;;;19.48;100.00;101338.84;5028646;28;19924;-83
2023/09/11 02:06:26;;;;;;;;;;;;;;;19.48;100.00;101331.66;5037281;28;19935;-81
2023/09/11 02:09:12;;;;;;;;;;;;;;;19.48;100.00;101333.47;5060848;28;19947;-83
2023/09/11 02:11:58;;;;;;;;;;;;;;;19.48;100.00;101334.34;5056426;28;20018;-83
2023/09/11 02:14:43;;;;;;;;;;;;;;;19.47;100.00;101331.78;5054826;28;20583;-82
2023/09/11 02:17:29;;;;;;;;;;;;;;;19.46;100.00;101328.25;5058412;28;19934;-83
2023/09/11 02:20:14;;;;;;;;;;;;;;;19.46;100.00;101327.38;5060486;28;19928;-82
2023/09/11 02:23:03;;;;;;;;;;;;;;;19.46;100.00;101330.06;5058104;28;19932;-82
2023/09/11 02:25:49;;;;;;;;;;;;;;;19.46;100.00;101328.25;5043517;28;20306;-83
2023/09/11 02:28:36;;;;;;;;;;;;;;;19.48;100.00;101328.09;5027485;28;19978;-83
2023/09/11 02:31:21;;;;;;;;;;;;;;;19.49;100.00;101333.38;5055808;28;19950;-82
2023/09/11 02:34:07;;;;;;;;;;;;;;;19.49;100.00;101325.31;5043299;28;19932;-83
2023/09/11 02:36:52;;;;;;;;;;;;;;;19.48;100.00;101320.06;5057552;28;20016;-82
2023/09/11 02:39:38;;;;;;;;;;;;;;;19.49;100.00;101316.38;5041072;28;20018;-82
2023/09/11 02:42:24;;;;;;;;;;;;;;;19.49;100.00;101321.75;5028858;28;19928;-82
2023/09/11 02:45:12;;;;;;;;;;;;;;;19.48;100.00;101314.69;5057157;28;19928;-82
2023/09/11 02:47:58;;;;;;;;;;;;;;;19.46;100.00;101306.75;5035218;28;19932;-82
2023/09/11 02:50:43;;;;;;;;;;;;;;;19.46;100.00;101305.91;5057607;28;19940;-83
2023/09/11 02:53:29;;;;;;;;;;;;;;;19.45;100.00;101305.03;5058579;28;19932;-82
2023/09/11 02:56:15;;;;;;;;;;;;;;;19.45;100.00;101302.34;5060231;28;19928;-83
2023/09/11 02:59:01;;;;;;;;;;;;;;;19.41;100.00;101304.41;5043526;28;20395;-82
2023/09/11 03:01:47;;;;;;;;;;;;;;;19.40;100.00;101301.88;5040938;28;19928;-82
2023/09/11 03:04:33;;;;;;;;;;;;;;;19.40;100.00;101291.13;5056631;28;19933;-82
2023/09/11 03:07:18;;;;;;;;;;;;;;;19.38;100.00;101290.34;5056901;28;20280;-82
2023/09/11 03:10:06;;;;;;;;;;;;;;;19.37;100.00;101285.97;5055640;28;19936;-82
2023/09/11 03:12:52;;;;;;;;;;;;;;;19.36;100.00;101285.13;5043673;28;19932;-83
2023/09/11 03:15:37;;;;;;;;;;;;;;;19.36;100.00;101290.50;5040563;28;21906;-83
2023/09/11 03:18:23;;;;;;;;;;;;;;;19.36;100.00;101287.81;5057944;28;19975;-83
2023/09/11 03:21:09;;;;;;;;;;;;;;;19.36;100.00;101279.75;5057294;28;19932;-82
2023/09/11 03:23:57;;;;;;;;;;;;;;;19.37;100.00;101275.22;5044222;28;20729;-82
2023/09/11 03:26:42;;;;;;;;;;;;;;;19.37;100.00;101277.91;5028953;28;19924;-82
2023/09/11 03:29:28;;;;;;;;;;;;;;;19.37;100.00;101277.91;5041748;28;19932;-82
2023/09/11 03:32:16;;;;;;;;;;;;;;;19.35;100.00;101269.13;5042609;28;19962;-83
2023/09/11 03:35:02;;;;;;;;;;;;;;;19.34;100.00;101268.25;5053811;28;19928;-83
2023/09/11 03:37:48;;;;;;;;;;;;;;;19.34;100.00;101270.94;5042508;28;19928;-83
2023/09/11 03:40:36;;;;;;;;;;;;;;;19.34;100.00;101268.25;5059940;28;19931;-83
2023/09/11 03:43:21;;;;;;;;;;;;;;;19.35;100.00;101261.91;5045780;28;19932;-82
2023/09/11 03:46:07;;;;;;;;;;;;;;;19.34;100.00;101254.84;5057890;28;19932;-83
2023/09/11 03:48:53;;;;;;;;;;;;;;;19.34;100.00;101254.84;5058240;28;19928;-83
2023/09/11 03:51:38;;;;;;;;;;;;;;;19.35;100.00;101256.56;5040680;28;20054;-82
2023/09/11 03:54:24;;;;;;;;;;;;;;;19.35;100.00;101251.19;5062688;28;19933;-82
2023/09/11 03:57:10;;;;;;;;;;;;;;;19.35;100.00;101240.44;5065321;28;19924;-81
2023/09/11 03:59:58;;;;;;;;;;;;;;;19.35;100.00;101235.06;5062124;28;19931;-82
2023/09/11 04:02:44;;;;;;;;;;;;;;;19.37;100.00;101232.28;5046455;28;19933;-83
2023/09/11 04:05:30;;;;;;;;;;;;;;;19.38;100.00;101229.50;5062948;28;20356;-81
2023/09/11 04:08:15;;;;;;;;;;;;;;;19.41;100.00;101223.03;5063725;28;20401;-81
2023/09/11 04:11:04;;;;;;;;;;;;;;;19.43;100.00;101222.94;5047664;28;20364;-81
2023/09/11 04:13:55;;;;;;;;;;;;;;;19.43;100.00;101221.06;5064530;28;20015;-80
2023/09/11 04:16:41;;;;;;;;;;;;;;;19.45;100.00;101218.28;5062628;28;20405;-81
2023/09/11 04:19:27;;;;;;;;;;;;;;;19.45;100.00;101211.06;5046239;28;19978;-82
2023/09/11 04:22:12;;;;;;;;;;;;;;;19.46;100.00;101207.44;5049136;28;20345;-82
2023/09/11 04:24:58;;;;;;;;;;;;;;;19.47;100.00;101211.81;5044887;28;19940;-81
2023/09/11 04:27:44;;;;;;;;;;;;;;;19.48;100.00;101212.66;5048881;28;19943;-83
2023/09/11 04:30:30;;;;;;;;;;;;;;;19.47;100.00;101203.75;5046222;28;20047;-82
2023/09/11 04:33:16;;;;;;;;;;;;;;;19.47;100.00;101202.91;5048573;28;20014;-83
2023/09/11 04:36:02;;;;;;;;;;;;;;;19.46;100.00;101204.75;5060628;28;19967;-81
2023/09/11 04:38:48;;;;;;;;;;;;;;;19.45;100.00;101216.44;5064066;28;19948;-81
2023/09/11 04:41:33;;;;;;;;;;;;;;;19.46;100.00;101209.25;5060135;28;19939;-82
2023/09/11 04:44:19;;;;;;;;;;;;;;;19.44;100.00;101209.34;5061820;28;19924;-82
2023/09/11 04:47:06;;;;;;;;;;;;;;;19.45;100.00;101204.84;5062295;28;22115;-82
2023/09/11 04:49:52;;;;;;;;;;;;;;;19.45;100.00;101203.00;5048629;28;19941;-84
2023/09/11 04:52:38;;;;;;;;;;;;;;;19.45;100.00;101202.19;5048662;28;21527;-84
2023/09/11 04:55:26;;;;;;;;;;;;;;;19.44;100.00;101200.47;5049600;28;20023;-83
2023/09/11 04:58:12;;;;;;;;;;;;;;;19.41;100.00;101197.03;5048123;28;19935;-84
2023/09/11 05:00:57;;;;;;;;;;;;;;;19.40;100.00;101191.78;5048208;28;19932;-84
2023/09/11 05:03:43;;;;;;;;;;;;;;;19.38;100.00;101197.28;5063358;28;19931;-83
2023/09/11 05:06:30;;;;;;;;;;;;;;;19.36;100.00;101193.88;5060600;28;20910;-83
2023/09/11 05:09:15;;;;;;;;;;;;;;;19.35;100.00;101193.97;5046733;28;20349;-84
2023/09/11 05:12:01;;;;;;;;;;;;;;;19.33;100.00;101202.13;5043568;28;19928;-83
2023/09/11 05:14:47;;;;;;;;;;;;;;;19.31;100.00;101193.38;5058432;28;20489;-83
2023/09/11 05:17:32;;;;;;;;;;;;;;;19.30;100.00;101186.28;5060634;28;20393;-83
2023/09/11 05:20:21;;;;;;;;;;;;;;;19.29;100.00;101192.63;5043195;28;21266;-82
2023/09/11 05:23:07;;;;;;;;;;;;;;;19.28;100.00;101198.94;5045231;28;19924;-83
2023/09/11 05:25:52;;;;;;;;;;;;;;;19.26;100.00;101191.03;5045062;28;20110;-83
2023/09/11 05:28:38;;;;;;;;;;;;;;;19.27;100.00;101184.69;5042716;28;19940;-82
2023/09/11 05:31:24;;;;;;;;;;;;;;;19.27;100.00;101178.47;5042682;28;20302;-82
2023/09/11 05:34:09;;;;;;;;;;;;;;;19.28;100.00;101182.84;5044270;28;19928;-83
2023/09/11 05:36:55;;;;;;;;;;;;;;;19.29;100.00;101184.59;5059057;28;19932;-83
2023/09/11 05:39:42;;;;;;;;;;;;;;;19.31;100.00;101184.44;5060843;28;20266;-83
2023/09/11 05:42:28;;;;;;;;;;;;;;;19.34;100.00;101190.41;5058620;28;19928;-82
2023/09/11 05:45:14;;;;;;;;;;;;;;;19.39;100.00;101185.56;5045242;28;19941;-84
2023/09/11 05:47:59;;;;;;;;;;;;;;;19.44;100.00;101187.03;5056526;28;20196;-84
2023/09/11 05:50:45;;;;;;;;;;;;;;;19.48;100.00;101183.13;5057801;28;19929;-83
2023/09/11 05:53:31;;;;;;;;;;;;;;;19.53;100.00;101189.00;5058503;28;19935;-82
2023/09/11 05:56:16;;;;;;;;;;;;;;;19.57;100.00;101190.47;5059945;28;19933;-83
2023/09/11 05:59:02;;;;;;;;;;;;;;;19.59;100.00;101193.88;5042748;28;20233;-83
2023/09/11 06:01:48;;;;;;;;;;;;;;;19.65;100.00;101192.53;5044683;28;20820;-83
2023/09/11 06:04:34;;;;;;;;;;;;;;;19.70;100.00;101200.22;5040690;28;19952;-82
2023/09/11 06:07:19;;;;;;;;;;;;;;;19.73;100.00;101200.88;5059625;28;20754;-82
2023/09/11 06:10:05;;;;;;;;;;;;;;;19.78;100.00;101204.03;5043993;28;19924;-85
2023/09/11 06:12:51;;;;;;;;;;;;;;;19.84;100.00;101202.72;5043954;28;19932;-83
2023/09/11 06:15:37;;;;;;;;;;;;;;;19.89;100.00;101205.84;5059971;28;19991;-83
2023/09/11 06:18:22;;;;;;;;;;;;;;;19.97;100.00;101207.09;5057713;28;19928;-84
2023/09/11 06:21:11;;;;;;;;;;;;;;;20.01;100.00;101200.53;5059716;28;19973;-88
2023/09/11 06:23:57;;;;;;;;;;;;;;;20.07;100.00;101194.66;5051453;28;19929;-90
2023/09/11 06:26:45;;;;;;;;;;;;;;;20.12;100.00;101197.84;5037800;28;19924;-89
2023/09/11 06:29:31;;;;;;;;;;;;;;;20.18;100.00;101191.97;5032796;28;20407;-86
2023/09/11 06:32:16;;;;;;;;;;;;;;;20.22;100.00;101200.63;5031028;28;19932;-88
2023/09/11 06:35:04;;;;;;;;;;;;;;;20.28;100.00;101201.97;5030309;28;19967;-89
2023/09/11 06:37:50;;;;;;;;;;;;;;;20.34;100.00;101198.78;5033679;28;19937;-86
2023/09/11 06:40:39;;;;;;;;;;;;;;;20.39;100.00;101196.56;5058824;28;19976;-87
2023/09/11 06:43:25;;;;;;;;;;;;;;;20.48;100.00;101195.81;5028330;28;19931;-87
2023/09/11 06:46:14;;;;;;;;;;;;;;;20.55;100.00;101196.16;5043699;28;20431;-88
2023/09/11 06:49:00;;;;;;;;;;;;;;;20.63;100.00;101195.50;5029320;28;19947;-86
2023/09/11 06:51:46;;;;;;;;;;;;;;;20.70;100.00;101194.03;5069487;28;20555;-91
2023/09/11 06:54:31;;;;;;;;;;;;;;;20.75;100.00;101189.13;5069068;28;19977;-93
2023/09/11 06:57:17;;;;;;;;;;;;;;;20.81;100.00;101178.84;5052366;28;19929;-93
2023/09/11 07:00:10;;;;;;;;;;;;;;;20.84;100.00;101183.97;5037430;28;19928;-90
2023/09/11 07:02:56;;;;;;;;;;;;;;;20.87;100.00;101178.34;5049249;28;19932;-90
2023/09/11 07:05:42;;;;;;;;;;;;;;;20.92;100.00;101181.47;5045937;28;19924;-92
2023/09/11 07:08:27;;;;;;;;;;;;;;;20.95;100.00;101180.38;5072964;28;19929;-89
2023/09/11 07:11:15;;;;;;;;;;;;;;;21.00;100.00;101189.78;5057694;28;19928;-88
2023/09/11 07:14:12;;;;;;;;;;;;;;;21.07;100.00;101200.03;5059722;28;19916;-89
2023/09/11 07:17:03;;;;;;;;;;;;;;;21.11;100.00;101202.31;5043367;28;19929;-91
2023/09/11 07:19:51;;;;;;;;;;;;;;;21.16;100.00;101197.41;5044049;28;19928;-84
2023/09/11 07:22:37;;;;;;;;;;;;;;;21.22;100.00;101206.78;5040545;28;19933;-84
2023/09/11 07:25:23;;;;;;;;;;;;;;;21.29;100.00;101212.50;5054088;28;20367;-84
2023/09/11 07:28:12;;;;;;;;;;;;;;;21.36;100.00;101202.91;5035168;28;20665;-85
2023/09/11 07:30:58;;;;;;;;;;;;;;;21.45;100.00;101209.34;5019274;28;19943;-86
2023/09/11 07:33:44;;;;;;;;;;;;;;;21.54;100.00;101213.09;5048152;28;20587;-89
2023/09/11 07:36:32;;;;;;;;;;;;;;;21.61;100.00;101205.34;5066062;28;19928;-89
2023/09/11 07:39:19;;;;;;;;;;;;;;;21.69;100.00;101200.16;5041181;28;19929;-84
2023/09/11 07:42:05;;;;;;;;;;;;;;;21.79;100.00;101208.28;5043138;28;19928;-87
2023/09/11 07:44:51;;;;;;;;;;;;;;;21.89;100.00;101200.25;5023259;28;20029;-87
2023/09/11 07:47:39;;;;;;;;;;;;;;;21.96;100.00;101199.56;5039084;28;19931;-89
2023/09/11 07:50:25;;;;;;;;;;;;;;;22.06;100.00;101206.84;5024856;28;19966;-87
2023/09/11 07:53:11;;;;;;;;;;;;;;;22.16;100.00;101209.56;5057333;28;20193;-87
2023/09/11 07:55:57;;;;;;;;;;;;;;;22.28;100.00;101207.59;5044515;28;20019;-88
2023/09/11 07:58:42;;;;;;;;;;;;;;;22.41;100.00;101205.50;5056377;28;19928;-91
2023/09/11 08:01:28;;;;;;;;;;;;;;;22.54;100.00;101215.22;5063195;28;19928;-87
2023/09/11 08:04:14;;;;;;;;;;;;;;;22.65;100.00;101212.38;5030614;28;20316;-88
2023/09/11 08:06:59;;;;;;;;;;;;;;;22.75;100.00;101212.38;5028955;28;20240;-86
2023/09/11 08:09:46;;;;;;;;;;;;;;;22.85;100.00;101213.25;5057287;28;20106;-81
2023/09/11 08:12:41;;;;;;;;;;;;;;;22.97;100.00;101205.00;5041731;28;19928;-95
2023/09/11 08:15:32;;;;;;;;;;;;;;;23.08;100.00;101202.16;5058165;28;19928;-96
2023/09/11 08:18:18;;;;;;;;;;;;;;;23.16;100.00;101202.28;5058698;28;19926;-92
2023/09/11 08:21:06;;;;;;;;;;;;;;;23.24;100.00;101203.41;5057146;28;20433;-94
2023/09/11 08:23:52;;;;;;;;;;;;;;;23.32;100.00;101209.00;5071792;28;20408;-94
2023/09/11 08:26:38;;;;;;;;;;;;;;;23.37;100.00;101206.69;5072069;28;19985;-94
2023/09/11 08:29:36;;;;;;;;;;;;;;;23.45;100.00;101208.66;5052937;28;19932;-91
2023/09/11 08:32:22;;;;;;;;;;;;;;;23.53;100.00;101200.69;5037281;28;19988;-91
2023/09/11 08:35:08;;;;;;;;;;;;;;;23.57;100.00;101198.53;5049512;28;19924;-89
2023/09/11 08:37:53;;;;;;;;;;;;;;;23.62;100.00;101198.13;5035031;28;19928;-91
2023/09/11 08:40:47;;;;;;;;;;;;;;;23.64;100.00;101199.66;5042113;28;21648;-90
2023/09/11 08:43:36;;;;;;;;;;;;;;;23.70;100.00;101215.28;5067440;28;19924;-92
2023/09/11 08:46:22;;;;;;;;;;;;;;;23.79;100.00;101213.53;5070915;28;19956;-94
2023/09/11 08:49:07;;;;;;;;;;;;;;;23.87;100.00;101213.63;5057213;28;19924;-90
2023/09/11 08:51:53;;;;;;;;;;;;;;;23.92;100.00;101224.03;5054117;28;19928;-90
2023/09/11 08:54:43;;;;;;;;;;;;;;;23.98;100.00;101218.00;5056064;28;19939;-94
2023/09/11 08:57:28;;;;;;;;;;;;;;;24.03;100.00;101219.41;5069255;28;19924;-94
2023/09/11 09:00:17;;;;;;;;;;;;;;;24.10;100.00;101218.72;5076490;28;20057;-92
2023/09/11 09:03:08;;;;;;;;;;;;;;;24.15;100.00;101210.16;5066215;28;19920;-95
2023/09/11 09:05:54;;;;;;;;;;;;;;;24.20;100.00;101215.97;5048371;28;20047;-89
2023/09/11 09:08:39;;;;;;;;;;;;;;;24.26;100.00;101214.50;5035515;28;19931;-90
2023/09/11 09:11:25;;;;;;;;;;;;;;;24.33;100.00;101215.59;5046089;28;20450;-96
2023/09/11 09:14:11;;;;;;;;;;;;;;;24.39;100.00;101224.94;5049558;28;19928;-92
2023/09/11 09:16:57;;;;;;;;;;;;;;;24.44;100.00;101211.81;5042999;28;19958;-85
2023/09/11 09:19:43;;;;;;;;;;;;;;;24.51;100.00;101220.19;5034609;28;20138;-84
2023/09/11 09:22:41;;;;;;;;;;;;;;;;;;;;;
2023/09/11 09:25:28;;;;;;;;;;;;;;;24.63;100.00;101218.09;5050450;28;19939;-88
2023/09/11 09:28:26;;;;;;;;;;;;;;;24.71;100.00;101209.22;5047144;28;19983;-83
2023/09/11 09:31:23;;;;;;;;;;;;;;;24.78;100.00;101221.13;5032753;28;20172;-84
2023/09/11 09:34:15;;;;;;;;;;;;;;;24.80;100.00;101217.28;5048421;28;19928;-86
2023/09/11 09:37:00;;;;;;;;;;;;;;;24.81;100.00;101227.13;5061779;28;19985;-87
2023/09/11 09:39:50;;;;;;;;;;;;;;;24.85;100.00;101222.25;5062049;28;20674;-84
2023/09/11 09:42:44;;;;;;;;;;;;;;;24.89;100.00;101222.78;5059066;28;19932;-85
2023/09/11 09:45:37;;;;;;;;;;;;;;;24.93;100.00;101225.03;5062108;28;20304;-86
2023/09/11 09:48:25;;;;;;;;;;;;;;;24.91;100.00;101226.19;5060549;28;20006;-84
2023/09/11 09:51:10;;;;;;;;;;;;;;;24.91;100.00;101221.63;5062220;28;20276;-84
2023/09/11 09:53:57;;;;;;;;;;;;;;;24.88;100.00;101221.09;5062519;28;19982;-86
2023/09/11 09:56:42;;;;;;;;;;;;;;;24.90;100.00;101214.50;5046508;28;19944;-84
2023/09/11 09:59:28;;;;;;;;;;;;;;;24.94;100.00;101218.59;5062609;28;20267;-85
2023/09/11 10:02:14;;;;;;;;;;;;;;;24.98;100.00;101211.00;5062492;28;19946;-86
2023/09/11 10:05:03;;;;;;;;;;;;;;;25.00;100.00;101216.28;5061666;28;19928;-85
2023/09/11 10:07:50;;;;;;;;;;;;;;;25.06;100.00;101216.50;5061104;28;20000;-86
2023/09/11 10:10:36;;;;;;;;;;;;;;;25.09;100.00;101208.06;5057601;28;19928;-84
2023/09/11 10:13:27;;;;;;;;;;;;;;;25.11;100.00;101209.75;5060120;28;19947;-82
2023/09/11 10:16:20;;;;;;;;;;;;;;;25.15;100.00;101205.72;5049750;28;20023;-92
2023/09/11 10:19:06;;;;;;;;;;;;;;;25.19;100.00;101207.13;5038321;28;19932;-91
2023/09/11 10:21:55;;;;;;;;;;;;;;;25.21;100.00;101205.09;5049677;28;19971;-89
2023/09/11 10:24:40;;;;;;;;;;;;;;;25.25;100.00;101201.06;5046088;28;19935;-90
2023/09/11 10:27:29;;;;;;;;;;;;;;;25.25;100.00;101195.66;5031986;28;19924;-90
2023/09/11 10:30:15;;;;;;;;;;;;;;;25.30;100.00;101197.88;5047997;28;19999;-89
2023/09/11 10:33:02;;;;;;;;;;;;;;;25.34;100.00;101199.28;5034040;28;20595;-89
2023/09/11 10:35:48;;;;;;;;;;;;;;;25.38;100.00;101191.66;5044032;28;19936;-90
2023/09/11 10:38:33;;;;;;;;;;;;;;;25.38;100.00;101194.38;5049468;28;19924;-92
2023/09/11 10:41:19;;;;;;;;;;;;;;;25.46;100.00;101194.44;5037050;28;19935;-84
2023/09/11 10:44:05;;;;;;;;;;;;;;;25.50;100.00;101193.94;5047406;28;21470;-81
2023/09/11 10:46:52;;;;;;;;;;;;;;;25.53;100.00;101197.41;5029676;28;19974;-83
2023/09/11 10:49:37;;;;;;;;;;;;;;;25.53;100.00;101198.22;5061709;28;19930;-84
2023/09/11 10:52:24;;;;;;;;;;;;;;;25.54;100.00;101199.91;5061027;28;19943;-85
2023/09/11 10:55:10;;;;;;;;;;;;;;;25.52;100.00;101191.13;5045664;28;20404;-86
2023/09/11 10:58:02;;;;;;;;;;;;;;;25.46;99.17;101192.59;5046324;28;19963;-87
2023/09/11 11:00:51;;;;;;;;;;;;;;;25.44;99.98;101200.00;5062233;28;20050;-88
2023/09/11 11:03:36;;;;;;;;;;;;;;;25.47;99.36;101202.41;5043369;28;20364;-85
2023/09/11 11:06:23;;;;;;;;;;;;;;;25.48;100.00;101200.53;5042348;28;19975;-85
2023/09/11 11:09:27;;;;;;;;;;;;;;;25.50;96.60;101207.50;5030045;28;19927;-85
2023/09/11 11:12:15;;;;;;;;;;;;;;;25.55;94.38;101211.63;5060756;28;19928;-84
2023/09/11 11:15:24;;;;;;;;;;;;;;;25.59;95.75;101218.41;5042965;28;19935;-85
2023/09/11 11:18:12;;;;;;;;;;;;;;;25.62;98.35;101216.22;5060011;28;19967;-82
2023/09/11 11:21:05;;;;;;;;;;;;;;;25.67;96.42;101218.47;5060080;28;20031;-86
2023/09/11 11:23:58;;;;;;;;;;;;;;;25.67;94.95;101207.63;5044317;28;19932;-86
2023/09/11 11:26:44;;;;;;;;;;;;;;;25.68;98.40;101208.47;5044955;28;19982;-85
2023/09/11 11:29:29;;;;;;;;;;;;;;;25.67;94.58;101225.75;5057617;28;19935;-86
2023/09/11 11:32:17;;;;;;;;;;;;;;;25.65;94.68;101208.81;5043721;28;19928;-87
2023/09/11 11:35:04;;;;;;;;;;;;;;;25.64;91.52;101226.91;5043040;28;19971;-85
2023/09/11 11:37:52;;;;;;;;;;;;;;;25.68;92.79;101219.31;5058489;28;19940;-84
2023/09/11 11:40:38;;;;;;;;;;;;;;;25.68;96.93;101222.03;5031605;28;20622;-87
2023/09/11 11:43:24;;;;;;;;;;;;;;;25.69;96.32;101219.16;5045449;28;19924;-87
2023/09/11 11:46:11;;;;;;;;;;;;;;;25.66;97.41;101227.63;5043424;28;19928;-85
2023/09/11 11:48:57;;;;;;;;;;;;;;;25.58;99.79;101227.56;5058611;28;19932;-91
2023/09/11 11:51:44;;;;;;;;;;;;;;;25.50;100.00;101228.34;5029866;28;19935;-82
2023/09/11 11:54:30;;;;;;;;;;;;;;;25.47;100.00;101225.94;5057935;28;20311;-88
2023/09/11 11:57:15;;;;;;;;;;;;;;;25.44;100.00;101232.50;5043425;28;20018;-86
2023/09/11 12:00:03;;;;;;;;;;;;;;;25.40;100.00;101225.72;5041997;28;19928;-89
2023/09/11 12:02:50;;;;;;;;;;;;;;;25.31;100.00;101224.81;5045867;28;20027;-89
2023/09/11 12:05:37;;;;;;;;;;;;;;;25.27;100.00;101223.41;5035644;28;19939;-95
2023/09/11 12:08:26;;;;;;;;;;;;;;;25.25;100.00;101233.56;5030829;28;20010;-85
2023/09/11 12:11:11;;;;;;;;;;;;;;;25.16;100.00;101229.94;5044551;28;19925;-89
2023/09/11 12:13:57;;;;;;;;;;;;;;;25.18;100.00;101237.91;5030063;28;19932;-91
2023/09/11 12:16:43;;;;;;;;;;;;;;;25.17;100.00;101230.81;5048630;28;20053;-84
2023/09/11 12:19:28;;;;;;;;;;;;;;;25.12;100.00;101238.53;5037621;28;20862;-87
2023/09/11 12:22:16;;;;;;;;;;;;;;;25.02;100.00;101236.78;5061856;28;19967;-87
2023/09/11 12:25:02;;;;;;;;;;;;;;;24.93;100.00;101246.69;5050942;28;21839;-88
2023/09/11 12:27:48;;;;;;;;;;;;;;;24.93;100.00;101248.53;5049513;28;20023;-88
2023/09/11 12:30:34;;;;;;;;;;;;;;;24.90;100.00;101246.97;5031782;28;19928;-85
2023/09/11 12:33:33;;;;;;;;;;;;;;;24.93;100.00;101251.22;5049073;28;19939;-85
2023/09/11 12:36:22;;;;;;;;;;;;;;;24.96;100.00;101245.53;5053509;28;20012;-87
2023/09/11 12:39:08;;;;;;;;;;;;;;;24.88;100.00;101249.00;5064919;28;20690;-86
2023/09/11 12:41:56;;;;;;;;;;;;;;;24.83;100.00;101251.31;5048497;28;19928;-90
2023/09/11 12:44:42;;;;;;;;;;;;;;;24.91;100.00;101254.13;5034210;28;20051;-88
2023/09/11 12:47:27;;;;;;;;;;;;;;;24.91;100.00;101250.53;5048017;28;19925;-88
2023/09/11 12:50:16;;;;;;;;;;;;;;;24.91;100.00;101255.97;5045533;28;19984;-83
2023/09/11 12:53:04;;;;;;;;;;;;;;;24.89;100.00;101252.56;5064186;28;19934;-85
2023/09/11 12:55:51;;;;;;;;;;;;;;;24.83;100.00;101261.31;5049405;28;19924;-87
2023/09/11 12:58:37;;;;;;;;;;;;;;;24.78;100.00;101254.44;5031145;28;20179;-87
2023/09/11 13:01:31;;;;;;;;;;;;;;;24.81;100.00;101261.44;5031471;28;19951;-87
2023/09/11 13:04:19;;;;;;;;;;;;;;;24.79;100.00;101258.84;5049135;28;19924;-86
2023/09/11 13:07:06;;;;;;;;;;;;;;;24.71;100.00;101263.34;5033338;28;19928;-82
2023/09/11 13:09:55;;;;;;;;;;;;;;;24.67;100.00;101268.19;5057715;28;19977;-87
2023/09/11 13:12:48;;;;;;;;;;;;;;;24.67;100.00;101269.06;5032287;28;19939;-84
2023/09/11 13:15:33;;;;;;;;;;;;;;;24.66;100.00;101269.22;5032858;28;20541;-84
2023/09/11 13:18:19;;;;;;;;;;;;;;;24.66;100.00;101264.66;5043974;28;20294;-87
2023/09/11 13:21:07;;;;;;;;;;;;;;;24.66;100.00;101261.09;5045678;28;19939;-82
2023/09/11 13:23:53;;;;;;;;;;;;;;;24.68;100.00;101269.94;5063072;28;19932;-78
2023/09/11 13:26:39;;;;;;;;;;;;;;;24.68;100.00;101272.63;5041465;28;20016;-85
2023/09/11 13:29:25;;;;;;;;;;;;;;;24.58;100.00;101269.13;5044925;28;19964;-82
2023/09/11 13:32:13;;;;;;;;;;;;;;;24.50;100.00;101276.16;5058018;28;19934;-82
2023/09/11 13:34:59;;;;;;;;;;;;;;;24.44;100.00;101274.03;5029130;28;19954;-83
2023/09/11 13:37:44;;;;;;;;;;;;;;;24.44;100.00;101268.63;5053471;28;19924;-83
2023/09/11 13:40:33;;;;;;;;;;;;;;;24.44;100.00;101268.63;5056497;28;19988;-83
2023/09/11 13:43:22;;;;;;;;;;;;;;;24.37;100.00;101262.13;5027058;28;20333;-84
2023/09/11 13:46:10;;;;;;;;;;;;;;;24.34;100.00;101262.44;5062512;28;19931;-84
2023/09/11 13:48:55;;;;;;;;;;;;;;;24.23;100.00;101267.03;5047126;28;19939;-81
2023/09/11 13:51:43;;;;;;;;;;;;;;;24.18;100.00;101263.91;5061360;28;19960;-84
2023/09/11 13:54:29;;;;;;;;;;;;;;;24.15;100.00;101269.63;5059009;28;19966;-84
2023/09/11 13:57:17;;;;;;;;;;;;;;;24.06;100.00;101271.38;5043274;28;20023;-81
2023/09/11 14:00:06;;;;;;;;;;;;;;;24.00;100.00;101266.53;5041972;28;20027;-82
2023/09/11 14:02:52;;;;;;;;;;;;;;;23.92;100.00;101264.59;5058367;28;19935;-87
2023/09/11 14:05:38;;;;;;;;;;;;;;;23.84;100.00;101270.72;5045213;28;19928;-83
2023/09/11 14:08:25;;;;;;;;;;;;;;;23.77;100.00;101266.03;5042509;28;19985;-85